Time;durP1;ratioP1;P1;durP2;ratioP2;P2;SDS_P1;SDS_P2;PMS_P1;PMS_P2;Temp;Humidity;BMP_temperature;BMP_pressure;BME280_temperature;BME280_humidity;BME280_pressure;Samples;Min_cycle;Max_cycle;Signal;HPM_P1;HPM_P2
2021/10/28 06:01:04;;;;;;;14.85;6.20;;;15.30;99.90;;;;;;6160826;23;20031;-77
2021/10/28 06:03:32;;;;;;;18.30;6.47;;;15.30;99.90;;;;;;6243394;23;20024;-78
2021/10/28 06:05:59;;;;;;;15.07;6.72;;;15.30;99.90;;;;;;6243009;23;20538;-78
2021/10/28 06:08:26;;;;;;;12.93;6.25;;;15.30;99.90;;;;;;6242536;23;20564;-78
2021/10/28 06:10:52;;;;;;;15.50;6.43;;;15.30;99.90;;;;;;6242691;23;20474;-78
2021/10/28 06:13:19;;;;;;;16.55;7.43;;;15.30;99.90;;;;;;6242714;23;20028;-78
2021/10/28 06:15:47;;;;;;;12.55;6.13;;;15.30;99.90;;;;;;6242770;23;20020;-78
2021/10/28 06:20:43;;;;;;;14.13;5.57;;;15.40;99.90;;;;;;6243310;23;20358;-77
2021/10/28 06:23:10;;;;;;;15.38;6.00;;;15.40;99.90;;;;;;6242305;23;20373;-77
2021/10/28 06:25:37;;;;;;;14.35;6.53;;;15.40;99.90;;;;;;6242943;23;20048;-78
2021/10/28 06:28:05;;;;;;;13.95;6.47;;;15.40;99.90;;;;;;6242805;23;20508;-77
2021/10/28 06:30:33;;;;;;;18.15;6.15;;;15.40;99.90;;;;;;6242482;23;20031;-78
2021/10/28 06:33:09;;;;;;;25.15;7.00;;;15.40;99.90;;;;;;6242920;23;20043;-77
2021/10/28 06:35:37;;;;;;;19.65;6.85;;;15.40;99.90;;;;;;6242630;23;20020;-77
2021/10/28 06:38:04;;;;;;;16.88;7.00;;;15.40;99.90;;;;;;6242213;23;20524;-76
2021/10/28 06:40:31;;;;;;;18.83;6.30;;;15.40;99.90;;;;;;6242811;23;20016;-78
2021/10/28 06:42:58;;;;;;;20.10;7.65;;;15.40;99.90;;;;;;6243238;23;20352;-78
2021/10/28 06:45:25;;;;;;;21.55;7.45;;;15.40;99.90;;;;;;6241552;23;20024;-77
2021/10/28 06:47:55;;;;;;;19.65;7.07;;;15.40;99.90;;;;;;6241265;23;20016;-78
2021/10/28 06:50:27;;;;;;;19.25;5.97;;;15.40;99.90;;;;;;6242105;23;20413;-77
2021/10/28 07:03:28;;;;;;;14.45;6.78;;;15.40;99.90;;;;;;6241555;23;20016;-78
2021/10/28 07:06:00;;;;;;;17.48;6.75;;;15.40;99.90;;;;;;6242453;23;20089;-77
2021/10/28 07:08:27;;;;;;;18.25;7.50;;;15.40;99.90;;;;;;6242100;23;20086;-77
2021/10/28 07:10:56;;;;;;;16.73;7.60;;;15.40;99.90;;;;;;6242393;23;20090;-78
2021/10/28 07:13:27;;;;;;;20.73;7.47;;;15.40;99.90;;;;;;6241300;23;20555;-78
2021/10/28 07:15:59;;;;;;;19.73;7.00;;;15.50;99.90;;;;;;6242666;23;20020;-78
2021/10/28 07:18:37;;;;;;;12.82;6.22;;;15.50;99.90;;;;;;6242299;23;20082;-78
2021/10/28 07:21:24;;;;;;;19.23;6.38;;;15.50;99.90;;;;;;6242664;23;20024;-78
2021/10/28 08:17:41;;;;;;;20.70;7.47;;;15.80;99.90;;;;;;6241941;23;20051;-77
2021/10/28 08:20:30;;;;;;;14.65;7.00;;;15.80;99.90;;;;;;6241896;23;20552;-78
2021/10/28 08:23:27;;;;;;;18.50;6.93;;;15.80;99.90;;;;;;6242860;23;20020;-77
2021/10/28 08:31:05;;;;;;;17.30;5.50;;;15.90;99.90;;;;;;6242184;23;20027;-74
2021/10/28 08:33:32;;;;;;;15.48;5.85;;;15.90;99.90;;;;;;6242428;23;20091;-77
2021/10/28 08:36:14;;;;;;;15.77;5.72;;;15.90;99.90;;;;;;6242600;23;20016;-77
2021/10/28 08:38:42;;;;;;;16.15;5.47;;;16.00;99.90;;;;;;6241883;23;20016;-77
2021/10/28 08:41:10;;;;;;;17.40;5.72;;;15.90;99.90;;;;;;6240856;23;20028;-78
2021/10/28 08:43:42;;;;;;;15.10;5.40;;;16.00;99.90;;;;;;6242628;23;20077;-77
2021/10/28 08:46:10;;;;;;;11.10;5.22;;;16.00;99.90;;;;;;6242314;23;20028;-77
2021/10/28 08:48:41;;;;;;;19.67;5.50;;;16.10;99.90;;;;;;6242606;23;20211;-77
2021/10/28 08:51:18;;;;;;;16.17;5.22;;;16.00;99.90;;;;;;6241680;23;20036;-78
2021/10/28 09:24:40;;;;;;;13.45;4.07;;;16.40;99.90;;;;;;6241510;23;20016;-76
2021/10/28 09:27:22;;;;;;;12.20;4.70;;;16.40;99.90;;;;;;6241572;23;20024;-77
2021/10/28 09:30:20;;;;;;;13.75;3.97;;;16.40;99.90;;;;;;6242243;23;20097;-77
2021/10/28 09:32:52;;;;;;;11.43;3.67;;;16.50;99.90;;;;;;6242181;23;20358;-77
2021/10/28 09:44:31;;;;;;;9.25;3.22;;;16.60;99.90;;;;;;6241724;23;20071;-78
2021/10/28 09:47:06;;;;;;;13.80;3.30;;;16.70;99.90;;;;;;6241662;23;20032;-78
2021/10/28 09:49:51;;;;;;;10.68;3.53;;;16.80;99.90;;;;;;6215047;23;20395;-77
2021/10/28 09:52:29;;;;;;;11.32;3.92;;;16.80;99.90;;;;;;6241320;23;20050;-78
2021/10/28 09:58:05;;;;;;;12.27;3.60;;;17.00;99.90;;;;;;6241267;23;20070;-77
2021/10/28 10:00:39;;;;;;;10.80;3.50;;;17.00;99.90;;;;;;6241497;23;20020;-77
2021/10/28 10:03:26;;;;;;;10.65;3.10;;;17.00;99.90;;;;;;6241139;23;20058;-77
2021/10/28 10:06:07;;;;;;;10.65;2.78;;;17.00;99.90;;;;;;6241563;23;20024;-77
2021/10/28 10:08:34;;;;;;;10.57;4.03;;;17.00;99.90;;;;;;6241515;23;20016;-77
2021/10/28 10:11:03;;;;;;;9.73;3.35;;;17.10;99.90;;;;;;6241748;23;20020;-77
2021/10/28 10:13:31;;;;;;;12.63;3.25;;;17.10;99.90;;;;;;6240796;23;20074;-78
2021/10/28 10:16:00;;;;;;;11.38;3.15;;;17.10;99.90;;;;;;6241703;23;20087;-77
2021/10/28 10:18:38;;;;;;;9.77;3.20;;;17.10;99.90;;;;;;6241358;23;20015;-77
2021/10/28 10:21:25;;;;;;;11.07;2.88;;;17.20;99.90;;;;;;6240893;23;20475;-76
2021/10/28 10:24:33;;;;;;;8.70;3.10;;;17.20;99.90;;;;;;6241036;23;20020;-77
2021/10/28 12:46:10;;;;;;;6.25;2.40;;;17.30;99.90;;;;;;6090663;23;20018;-78
2021/10/28 12:49:17;;;;;;;6.32;2.70;;;17.40;99.90;;;;;;6090295;23;20019;-78
2021/10/28 12:55:09;;;;;;;10.13;3.03;;;17.50;99.90;;;;;;6178969;23;20013;-79
2021/10/28 13:03:35;;;;;;;9.18;3.03;;;17.70;99.90;;;;;;6241608;23;20478;-78
2021/10/28 14:15:03;;;;;;;10.63;2.75;;;17.60;99.90;;;;;;6240322;23;20020;-78
2021/10/28 15:28:33;;;;;;;13.60;2.75;;;17.10;99.90;;;;;;6242387;23;20020;-77
2021/10/28 15:36:38;;;;;;;8.73;2.85;;;17.00;99.90;;;;;;6242760;23;20016;-77
2021/10/28 16:00:30;;;;;;;11.10;2.97;;;16.70;99.90;;;;;;6241860;22;20024;-78
2021/10/28 16:22:17;;;;;;;14.70;3.30;;;16.60;99.90;;;;;;6241031;23;20025;-75
2021/10/28 16:24:44;;;;;;;14.35;3.42;;;16.60;99.90;;;;;;6241133;23;20470;-75
2021/10/28 16:27:11;;;;;;;12.95;3.42;;;16.50;99.90;;;;;;6242115;23;20024;-77
2021/10/28 16:29:38;;;;;;;12.98;4.03;;;16.60;99.90;;;;;;6242128;23;20020;-77
2021/10/28 16:32:05;;;;;;;16.17;3.45;;;16.60;99.90;;;;;;6235701;23;20498;-77
2021/10/28 16:34:32;;;;;;;10.90;3.22;;;16.60;99.90;;;;;;6242335;23;20074;-77
2021/10/28 16:36:59;;;;;;;18.48;3.72;;;16.60;99.90;;;;;;6241678;23;20024;-76
2021/10/28 16:39:32;;;;;;;11.68;2.97;;;16.50;99.90;;;;;;6239941;23;20035;-78
2021/10/28 16:41:59;;;;;;;14.95;3.42;;;16.60;99.90;;;;;;6241180;23;20763;-77
2021/10/28 16:44:26;;;;;;;13.40;3.63;;;16.50;99.90;;;;;;6240656;23;20352;-76
2021/10/28 16:46:55;;;;;;;19.33;3.88;;;16.50;99.90;;;;;;6214772;23;20064;-76
2021/10/28 16:49:22;;;;;;;16.67;3.83;;;16.50;99.90;;;;;;6241664;23;20107;-77
2021/10/28 16:51:50;;;;;;;15.30;3.13;;;16.50;99.90;;;;;;6242353;23;20019;-76
2021/10/28 16:54:18;;;;;;;19.17;3.88;;;16.50;99.90;;;;;;6241038;23;20020;-77
2021/10/28 16:56:46;;;;;;;19.25;4.43;;;16.50;99.90;;;;;;6216296;23;20012;-78
2021/10/28 16:59:13;;;;;;;16.40;3.42;;;16.50;99.90;;;;;;6241720;23;20024;-78
2021/10/28 17:01:41;;;;;;;17.08;4.70;;;16.40;99.90;;;;;;6242469;23;20028;-80
2021/10/28 17:04:08;;;;;;;16.48;3.80;;;16.40;99.90;;;;;;6242169;23;20028;-77
2021/10/28 17:06:36;;;;;;;14.70;3.97;;;16.40;99.90;;;;;;6241620;23;20078;-77
2021/10/28 17:09:07;;;;;;;16.50;4.13;;;16.40;99.90;;;;;;6242201;23;20086;-77
2021/10/28 17:11:35;;;;;;;18.55;3.90;;;16.40;99.90;;;;;;6241686;23;20794;-77
2021/10/28 17:14:03;;;;;;;;;;;16.40;99.90;;;;;;6242791;23;20020;-77
2021/10/28 17:16:32;;;;;;;13.75;4.70;;;16.40;99.90;;;;;;6241158;23;19990;-78
2021/10/28 17:18:59;;;;;;;17.10;4.13;;;16.40;99.90;;;;;;6242024;23;20340;-78
2021/10/28 17:21:27;;;;;;;19.15;4.75;;;16.40;99.90;;;;;;6213840;23;20087;-77
2021/10/28 17:24:01;;;;;;;16.05;4.43;;;16.40;99.90;;;;;;6242005;23;20355;-78
2021/10/28 17:26:30;;;;;;;14.88;5.90;;;16.40;99.90;;;;;;6241896;23;20039;-79
2021/10/28 17:29:02;;;;;;;15.77;4.60;;;16.30;99.90;;;;;;6226084;23;20024;-78
2021/10/28 17:31:32;;;;;;;14.23;4.05;;;16.30;99.90;;;;;;6221464;23;20032;-78
2021/10/28 17:34:03;;;;;;;18.35;5.43;;;16.30;99.90;;;;;;6236709;23;20031;-79
2021/10/28 17:36:33;;;;;;;16.75;4.70;;;16.30;99.90;;;;;;6236015;23;20485;-79
2021/10/28 17:39:03;;;;;;;20.60;4.95;;;16.30;99.90;;;;;;6224877;23;20016;-88
2021/10/28 17:41:31;;;;;;;17.65;4.65;;;16.30;99.90;;;;;;6213208;23;20080;-83
2021/10/28 17:43:58;;;;;;;18.60;5.20;;;16.30;99.90;;;;;;6213027;23;20024;-83
2021/10/28 17:46:26;;;;;;;12.88;4.75;;;16.30;99.90;;;;;;6212025;23;20320;-83
2021/10/28 17:48:54;;;;;;;11.18;4.18;;;16.30;99.90;;;;;;6237759;23;20019;-86
2021/10/28 17:51:21;;;;;;;15.50;4.85;;;16.30;99.90;;;;;;6235028;23;20024;-85
2021/10/28 17:53:49;;;;;;;16.92;5.35;;;16.20;99.90;;;;;;6238480;23;20027;-85
2021/10/28 17:56:17;;;;;;;18.02;6.28;;;16.20;99.90;;;;;;6212185;23;20584;-85
2021/10/28 17:58:45;;;;;;;13.85;6.43;;;16.20;99.90;;;;;;6211315;23;20332;-86
2021/10/28 18:01:15;;;;;;;19.48;6.10;;;16.20;99.90;;;;;;6231092;23;20079;-85
2021/10/28 18:03:42;;;;;;;15.27;6.00;;;16.20;99.90;;;;;;6207454;23;20546;-84
2021/10/28 18:06:09;;;;;;;19.20;7.20;;;16.20;99.90;;;;;;6180616;23;20471;-84
2021/10/28 18:08:36;;;;;;;22.92;7.20;;;16.20;99.90;;;;;;6208196;23;20009;-86
2021/10/28 18:11:04;;;;;;;20.38;7.00;;;16.20;99.90;;;;;;6181518;23;20012;-84
2021/10/28 18:13:31;;;;;;;14.27;5.60;;;16.20;99.90;;;;;;6203989;23;20016;-86
2021/10/28 18:15:57;;;;;;;18.35;6.93;;;16.10;99.90;;;;;;6181307;23;20016;-85
2021/10/28 18:18:26;;;;;;;15.88;6.78;;;16.10;99.90;;;;;;6203425;23;20028;-84
2021/10/28 18:21:02;;;;;;;21.35;6.57;;;16.10;99.90;;;;;;6181406;23;20209;-86
2021/10/28 18:23:34;;;;;;;18.40;6.18;;;16.20;99.90;;;;;;6205097;23;20332;-86
2021/10/28 18:26:03;;;;;;;22.30;6.97;;;16.10;99.90;;;;;;6178882;23;20020;-83
2021/10/28 18:28:30;;;;;;;20.25;6.22;;;16.10;99.90;;;;;;6179103;23;20816;-83
2021/10/28 18:30:57;;;;;;;22.75;6.03;;;16.10;99.90;;;;;;6180504;23;20359;-82
2021/10/28 18:33:24;;;;;;;16.80;6.43;;;16.10;99.90;;;;;;6179035;23;20024;-84
2021/10/28 18:35:52;;;;;;;20.15;6.13;;;16.10;99.90;;;;;;6179307;23;20051;-86
2021/10/28 18:38:21;;;;;;;17.42;5.53;;;16.10;99.90;;;;;;6204981;23;20025;-84
2021/10/28 18:40:48;;;;;;;23.73;6.10;;;16.10;99.90;;;;;;6180165;23;20024;-84
2021/10/28 18:43:17;;;;;;;18.80;5.80;;;16.10;99.90;;;;;;6178561;23;20021;-82
2021/10/28 18:45:44;;;;;;;12.68;5.43;;;16.10;99.90;;;;;;6179332;23;20015;-81
2021/10/28 18:48:13;;;;;;;17.02;6.32;;;16.10;99.90;;;;;;6177936;23;20024;-80
2021/10/28 18:50:41;;;;;;;19.58;5.63;;;16.00;99.90;;;;;;6205866;23;20026;-82
2021/10/28 18:53:08;;;;;;;15.45;5.35;;;16.00;99.90;;;;;;6179056;23;20029;-83
2021/10/28 18:55:37;;;;;;;18.17;5.45;;;16.00;99.90;;;;;;6180354;23;20119;-85
2021/10/28 18:58:03;;;;;;;17.02;5.53;;;16.00;99.90;;;;;;6180823;23;20017;-85
2021/10/28 19:00:31;;;;;;;16.67;5.65;;;16.10;99.90;;;;;;6185128;23;20048;-83
2021/10/28 19:02:59;;;;;;;18.38;5.85;;;16.10;99.90;;;;;;6236624;23;20481;-83
2021/10/28 19:05:27;;;;;;;10.77;5.28;;;16.10;99.90;;;;;;6234493;23;20457;-84
2021/10/28 19:07:54;;;;;;;19.83;5.55;;;16.10;99.90;;;;;;6209892;23;20024;-82
2021/10/28 19:10:22;;;;;;;21.00;4.85;;;16.10;99.90;;;;;;6234704;23;20025;-82
2021/10/28 19:12:54;;;;;;;19.63;5.30;;;16.10;99.90;;;;;;6210701;23;20086;-85
2021/10/28 19:15:21;;;;;;;17.77;4.80;;;16.10;99.90;;;;;;6208456;23;20058;-83
2021/10/28 19:17:50;;;;;;;16.15;5.32;;;16.10;99.90;;;;;;6234925;23;20019;-83
2021/10/28 19:20:18;;;;;;;17.75;4.93;;;16.10;99.90;;;;;;6235033;23;20042;-83
2021/10/28 19:22:45;;;;;;;15.65;4.57;;;16.10;99.90;;;;;;6237069;23;20078;-82
2021/10/28 19:25:12;;;;;;;30.58;7.40;;;16.10;99.90;;;;;;6221224;23;20403;-85
2021/10/28 19:27:40;;;;;;;19.73;5.55;;;16.10;99.90;;;;;;6236907;23;20020;-85
2021/10/28 19:32:38;;;;;;;17.38;5.68;;;16.10;99.90;;;;;;6236119;23;20445;-84
2021/10/28 19:35:06;;;;;;;19.80;5.93;;;16.10;99.90;;;;;;6235892;23;20027;-81
2021/10/28 19:47:48;;;;;;;16.40;4.82;;;15.90;99.90;;;;;;6235226;23;20020;-81
2021/10/28 19:50:15;;;;;;;12.98;4.95;;;15.90;99.90;;;;;;6207822;23;20082;-81
2021/10/28 19:52:43;;;;;;;16.10;4.53;;;15.90;99.90;;;;;;6236705;23;20062;-84
2021/10/28 19:55:11;;;;;;;15.57;4.93;;;15.90;99.90;;;;;;6234778;23;20467;-82
2021/10/28 19:57:41;;;;;;;16.58;4.63;;;15.90;99.90;;;;;;6237731;23;20505;-83
2021/10/28 20:00:35;;;;;;;18.92;5.10;;;15.80;99.90;;;;;;6237647;23;20028;-82
2021/10/28 20:06:27;;;;;;;17.33;4.80;;;15.70;99.90;;;;;;6238421;23;20024;-84
2021/10/28 20:13:15;;;;;;;13.88;4.35;;;15.70;99.90;;;;;;6229369;23;20016;-83
2021/10/28 20:22:17;;;;;;;18.17;4.93;;;15.70;99.90;;;;;;6237640;23;20470;-83
2021/10/28 20:24:45;;;;;;;16.63;4.13;;;15.70;99.90;;;;;;6237638;23;20020;-81
2021/10/28 20:27:12;;;;;;;14.38;4.60;;;15.70;99.90;;;;;;6237320;23;20415;-82
2021/10/28 20:29:40;;;;;;;12.07;4.20;;;15.70;99.90;;;;;;6237272;23;20016;-83
2021/10/28 20:32:06;;;;;;;16.65;4.30;;;15.70;99.90;;;;;;6236469;23;20486;-82
2021/10/28 20:37:16;;;;;;;11.57;3.80;;;15.70;99.90;;;;;;6235524;23;20094;-82
2021/10/28 20:39:45;;;;;;;13.00;3.97;;;15.70;99.90;;;;;;6237063;23;20027;-84
2021/10/28 20:42:16;;;;;;;15.18;3.65;;;15.70;99.90;;;;;;6235968;23;20023;-83
2021/10/28 20:44:45;;;;;;;13.73;3.75;;;15.70;99.90;;;;;;6237250;23;20028;-83
2021/10/28 20:47:12;;;;;;;13.88;4.72;;;15.70;99.90;;;;;;6236778;23;20024;-84
2021/10/28 20:49:39;;;;;;;15.20;3.80;;;15.70;99.90;;;;;;6236292;23;20070;-84
2021/10/28 20:52:07;;;;;;;13.23;4.10;;;15.70;99.90;;;;;;6209505;23;20877;-83
2021/10/28 20:54:35;;;;;;;12.55;3.78;;;15.70;99.90;;;;;;6210523;23;20613;-84
2021/10/28 20:57:03;;;;;;;12.98;4.53;;;15.70;99.90;;;;;;6238588;23;20061;-84
2021/10/28 20:59:31;;;;;;;14.20;4.82;;;15.70;99.90;;;;;;6235406;23;20735;-83
2021/10/28 21:01:59;;;;;;;13.32;3.75;;;15.70;99.90;;;;;;6237849;23;20080;-85
2021/10/28 21:04:26;;;;;;;12.52;4.05;;;15.70;99.90;;;;;;6237523;23;20070;-83
2021/10/28 21:06:53;;;;;;;14.05;4.93;;;15.70;99.90;;;;;;6238516;23;20829;-85
2021/10/28 21:09:20;;;;;;;12.15;4.18;;;15.70;99.90;;;;;;6236723;23;20028;-84
2021/10/28 21:11:48;;;;;;;15.43;4.10;;;15.70;99.90;;;;;;6238247;23;20066;-83
2021/10/28 21:14:18;;;;;;;11.38;3.80;;;15.70;99.90;;;;;;6211842;23;20047;-84
2021/10/28 21:16:45;;;;;;;15.45;4.35;;;15.70;99.90;;;;;;6241380;23;20020;-84
2021/10/28 21:19:13;;;;;;;14.63;4.35;;;15.60;99.90;;;;;;6213668;23;20023;-83
2021/10/28 21:21:43;;;;;;;13.32;3.50;;;15.60;99.90;;;;;;6241646;23;20015;-81
2021/10/28 21:24:11;;;;;;;11.55;3.40;;;15.60;99.90;;;;;;6240709;23;20071;-82
2021/10/28 21:26:38;;;;;;;9.63;3.70;;;15.60;99.90;;;;;;6240549;23;20028;-82
2021/10/28 21:29:05;;;;;;;12.32;3.78;;;15.50;99.90;;;;;;6214624;23;20020;-82
2021/10/28 21:31:32;;;;;;;15.60;3.60;;;15.50;99.90;;;;;;6241078;23;20078;-82
2021/10/28 21:33:59;;;;;;;16.40;3.95;;;15.50;99.90;;;;;;6241612;23;20012;-83
2021/10/28 21:36:27;;;;;;;14.05;3.45;;;15.50;99.90;;;;;;6214181;23;20458;-82
2021/10/28 21:38:54;;;;;;;12.07;3.55;;;15.50;99.90;;;;;;6240537;23;20062;-82
2021/10/28 21:41:21;;;;;;;9.32;3.17;;;15.50;99.90;;;;;;6239737;23;20103;-80
2021/10/28 21:43:50;;;;;;;8.07;3.47;;;15.50;99.90;;;;;;6240532;23;20016;-80
2021/10/28 21:46:17;;;;;;;11.45;3.40;;;15.60;99.90;;;;;;6239881;23;20024;-82
2021/10/28 21:48:47;;;;;;;10.75;3.20;;;15.60;99.90;;;;;;6240968;23;20441;-81
2021/10/28 21:51:20;;;;;;;11.30;3.47;;;15.60;99.90;;;;;;6239951;23;20035;-83
2021/10/28 21:53:49;;;;;;;10.48;3.08;;;15.60;99.90;;;;;;6241076;23;20019;-81
2021/10/28 21:56:34;;;;;;;12.00;3.20;;;15.60;99.90;;;;;;6240285;23;20016;-82
